Time;durP1;ratioP1;P1;durP2;ratioP2;P2;SDS_P1;SDS_P2;PMS_P1;PMS_P2;Temp;Humidity;BMP_temperature;BMP_pressure;BME280_temperature;BME280_humidity;BME280_pressure;Samples;Min_cycle;Max_cycle;Signal;HPM_P1;HPM_P2
2022/08/04 00:02:46;;;;;;;2.55;1.70;;;24.30;66.50;;;;;;6181513;23;43411;-66
2022/08/04 00:05:34;;;;;;;2.00;1.50;;;24.30;66.40;;;;;;6146014;23;43493;-66
2022/08/04 00:08:17;;;;;;;2.80;1.70;;;24.30;66.40;;;;;;6181877;23;44042;-66
2022/08/04 00:10:49;;;;;;;2.00;1.70;;;24.30;66.40;;;;;;6181474;23;43454;-66
2022/08/04 00:13:21;;;;;;;2.08;1.60;;;24.30;66.40;;;;;;6181379;23;43826;-66
2022/08/04 00:15:56;;;;;;;1.92;1.63;;;24.30;66.40;;;;;;6182306;23;43377;-66
2022/08/04 00:18:44;;;;;;;2.13;1.80;;;24.30;66.40;;;;;;6181727;23;43783;-66
2022/08/04 00:21:14;;;;;;;2.00;1.50;;;24.30;66.40;;;;;;6181024;23;43444;-66
2022/08/04 00:23:46;;;;;;;1.77;1.50;;;24.30;66.40;;;;;;6182102;23;43364;-66
2022/08/04 00:26:34;;;;;;;2.13;1.80;;;24.30;66.40;;;;;;6181064;23;43448;-66
2022/08/04 00:29:02;;;;;;;2.95;1.90;;;24.30;66.40;;;;;;6181845;23;44404;-66
2022/08/04 00:31:30;;;;;;;2.03;1.65;;;24.20;66.40;;;;;;6181536;23;43413;-67
2022/08/04 00:34:17;;;;;;;1.95;1.70;;;24.20;66.30;;;;;;6181117;23;43353;-66
2022/08/04 00:36:45;;;;;;;1.88;1.77;;;24.20;66.30;;;;;;6181614;23;43560;-66
2022/08/04 00:39:15;;;;;;;2.38;1.77;;;24.20;66.40;;;;;;6181147;23;44770;-66
2022/08/04 00:42:20;;;;;;;2.97;1.65;;;24.20;66.30;;;;;;6180790;23;43409;-66
2022/08/04 00:45:16;;;;;;;1.80;1.70;;;24.20;66.30;;;;;;6181973;23;43370;-66
2022/08/04 00:47:58;;;;;;;3.10;1.75;;;24.20;67.00;;;;;;6154483;23;43431;-66
2022/08/04 00:50:26;;;;;;;1.88;1.50;;;24.20;66.30;;;;;;6181933;23;43777;-66
2022/08/04 00:53:06;;;;;;;2.30;1.85;;;24.20;66.30;;;;;;6182137;23;44471;-66
2022/08/04 00:56:02;;;;;;;2.28;1.63;;;24.20;66.30;;;;;;6181028;23;43444;-66
2022/08/04 00:58:42;;;;;;;1.90;1.77;;;24.20;66.30;;;;;;6181693;23;43541;-66
2022/08/04 01:01:25;;;;;;;3.10;1.70;;;24.20;66.30;;;;;;6181171;23;44942;-66
2022/08/04 01:04:13;;;;;;;2.00;1.63;;;24.20;66.30;;;;;;6181858;23;43372;-66
2022/08/04 01:07:14;;;;;;;1.83;1.48;;;24.20;66.30;;;;;;6181527;23;43389;-66
2022/08/04 01:10:06;;;;;;;3.47;1.70;;;24.10;66.30;;;;;;6180404;23;43448;-66
2022/08/04 01:12:54;;;;;;;1.90;1.70;;;24.10;66.30;;;;;;6179720;23;44311;-66
2022/08/04 01:15:47;;;;;;;1.98;1.73;;;24.10;66.30;;;;;;6182885;23;43676;-66
2022/08/04 01:19:00;;;;;;;2.67;1.80;;;24.10;66.30;;;;;;6182837;23;43436;-66
2022/08/04 01:21:28;;;;;;;;;;;24.10;66.30;;;;;;6177819;23;43390;-66
2022/08/04 01:24:13;;;;;;;2.05;1.70;;;24.10;66.40;;;;;;6182163;23;44000;-66
2022/08/04 01:27:00;;;;;;;3.40;1.70;;;24.10;66.40;;;;;;6182513;23;43918;-66
2022/08/04 01:29:55;;;;;;;3.85;1.63;;;24.10;66.40;;;;;;6182414;23;43432;-66
2022/08/04 01:32:54;;;;;;;2.97;1.75;;;24.10;66.40;;;;;;6182428;23;43496;-66
2022/08/04 01:35:29;;;;;;;2.67;1.60;;;24.10;66.40;;;;;;6159772;23;43754;-66
2022/08/04 01:38:22;;;;;;;2.00;1.60;;;24.10;66.40;;;;;;6181687;23;43896;-66
2022/08/04 01:40:58;;;;;;;2.40;2.10;;;24.10;66.40;;;;;;6182722;23;43472;-66
2022/08/04 01:43:28;;;;;;;2.30;1.63;;;24.00;66.30;;;;;;6183082;23;43517;-66
2022/08/04 01:46:03;;;;;;;2.15;1.80;;;24.10;66.40;;;;;;6182335;23;44025;-66
2022/08/04 01:48:31;;;;;;;3.78;2.08;;;24.00;66.30;;;;;;6182778;23;43368;-66
2022/08/04 01:51:05;;;;;;;2.28;1.70;;;24.10;66.40;;;;;;6181879;23;43428;-66
2022/08/04 01:53:39;;;;;;;1.83;1.73;;;24.00;66.30;;;;;;6182832;23;43487;-66
2022/08/04 01:56:11;;;;;;;1.88;1.70;;;24.00;66.30;;;;;;6182503;23;44845;-66
2022/08/04 01:58:40;;;;;;;3.00;1.83;;;24.00;66.30;;;;;;6181657;23;43940;-66
2022/08/04 02:01:09;;;;;;;2.83;1.95;;;24.00;66.30;;;;;;6182264;23;43436;-66
2022/08/04 02:03:40;;;;;;;2.75;1.80;;;24.00;66.30;;;;;;6182826;23;43457;-66
2022/08/04 02:06:56;;;;;;;1.77;1.55;;;24.00;66.30;;;;;;6181839;23;43577;-66
2022/08/04 02:09:30;;;;;;;2.75;1.73;;;24.00;66.40;;;;;;6171354;23;43416;-66
2022/08/04 02:12:26;;;;;;;1.83;1.55;;;24.00;66.40;;;;;;6181981;23;43406;-66
2022/08/04 02:15:02;;;;;;;3.08;1.88;;;24.00;66.40;;;;;;6182886;23;43403;-66
2022/08/04 02:17:42;;;;;;;2.50;2.08;;;23.90;66.40;;;;;;6156812;23;43769;-66
2022/08/04 02:20:24;;;;;;;2.08;1.70;;;23.90;66.30;;;;;;6181066;23;43468;-66
2022/08/04 02:23:00;;;;;;;1.85;1.67;;;23.90;66.40;;;;;;6182745;23;43390;-66
2022/08/04 02:25:31;;;;;;;2.25;1.63;;;23.90;66.40;;;;;;6156001;23;43377;-66
2022/08/04 02:28:12;;;;;;;;;;;23.90;66.40;;;;;;6182083;23;44042;-66
2022/08/04 02:30:49;;;;;;;2.17;1.98;;;23.90;66.40;;;;;;6182160;23;43556;-67
2022/08/04 02:33:22;;;;;;;2.63;1.70;;;23.90;66.50;;;;;;6181996;23;43372;-66
2022/08/04 02:35:56;;;;;;;1.77;1.67;;;23.90;66.50;;;;;;6182554;23;43475;-66
2022/08/04 02:39:00;;;;;;;1.90;1.73;;;23.90;66.50;;;;;;6182287;23;44953;-66
2022/08/04 02:41:30;;;;;;;2.35;1.80;;;23.90;66.50;;;;;;6181318;23;44097;-67
2022/08/04 02:44:01;;;;;;;2.53;1.83;;;23.90;66.50;;;;;;6182675;23;43395;-66
2022/08/04 02:46:30;;;;;;;2.22;1.75;;;23.90;66.50;;;;;;6182524;23;43476;-66
2022/08/04 02:48:57;;;;;;;1.85;1.70;;;23.90;66.50;;;;;;6181224;23;44030;-66
2022/08/04 02:51:33;;;;;;;2.13;1.90;;;23.90;66.50;;;;;;6182240;23;43624;-66
2022/08/04 02:54:03;;;;;;;2.00;1.60;;;23.80;66.40;;;;;;6182299;23;43360;-66
2022/08/04 02:56:33;;;;;;;2.80;2.10;;;23.80;66.40;;;;;;6182647;23;43453;-66
2022/08/04 02:59:06;;;;;;;2.83;1.77;;;23.80;66.50;;;;;;6156192;23;44975;-66
2022/08/04 03:01:34;;;;;;;2.20;1.90;;;23.90;66.50;;;;;;6181394;23;44737;-66
2022/08/04 03:04:14;;;;;;;2.30;1.70;;;23.80;66.50;;;;;;6182452;23;43390;-66
2022/08/04 03:07:36;;;;;;;2.15;1.92;;;23.80;66.50;;;;;;6182594;23;43408;-67
2022/08/04 03:10:41;;;;;;;3.10;2.13;;;23.80;66.50;;;;;;6175404;23;44010;-66
2022/08/04 03:13:44;;;;;;;1.67;1.58;;;23.80;66.50;;;;;;6182062;23;43684;-63
2022/08/04 03:16:36;;;;;;;2.15;1.92;;;23.80;66.50;;;;;;6181253;23;43645;-66
2022/08/04 03:19:10;;;;;;;3.05;1.88;;;23.80;66.60;;;;;;6182267;23;43469;-66
2022/08/04 03:22:16;;;;;;;2.97;1.77;;;23.80;66.60;;;;;;6182047;23;44000;-66
2022/08/04 03:25:24;;;;;;;2.20;1.70;;;23.80;66.50;;;;;;6182021;23;43414;-66
2022/08/04 03:28:24;;;;;;;2.10;1.90;;;23.80;66.50;;;;;;6181201;23;43503;-66
2022/08/04 03:31:29;;;;;;;2.25;1.92;;;23.80;66.60;;;;;;6181216;23;43489;-66
2022/08/04 03:34:05;;;;;;;2.05;1.83;;;23.80;66.60;;;;;;6155683;23;43936;-66
2022/08/04 03:36:48;;;;;;;2.15;2.05;;;23.70;66.50;;;;;;6180420;23;43421;-66
2022/08/04 03:39:42;;;;;;;2.10;1.90;;;23.70;66.50;;;;;;6181769;23;43356;-66
2022/08/04 03:42:40;;;;;;;2.15;1.80;;;23.70;66.60;;;;;;6181992;23;43468;-66
2022/08/04 03:45:44;;;;;;;2.45;2.25;;;23.70;66.60;;;;;;6181155;23;43769;-66
2022/08/04 03:48:17;;;;;;;2.20;1.83;;;23.70;66.60;;;;;;6181829;23;43416;-66
2022/08/04 03:54:34;;;;;;;2.33;2.10;;;23.70;66.60;;;;;;6101406;23;43468;-66
2022/08/04 03:57:37;;;;;;;2.65;2.00;;;23.70;66.60;;;;;;6166968;23;43582;-66
2022/08/04 04:00:24;;;;;;;1.70;1.60;;;23.70;66.60;;;;;;6059511;23;43469;-66
2022/08/04 04:03:09;;;;;;;2.53;1.85;;;23.70;66.60;;;;;;6174119;23;43456;-66
2022/08/04 04:06:08;;;;;;;2.10;1.90;;;23.70;66.60;;;;;;6180530;23;43461;-66
2022/08/04 04:08:59;;;;;;;2.13;1.90;;;23.70;66.60;;;;;;6181494;23;43737;-66
2022/08/04 04:11:56;;;;;;;2.10;1.90;;;23.70;66.60;;;;;;6180813;23;43476;-66
2022/08/04 04:14:43;;;;;;;2.20;2.00;;;23.70;66.60;;;;;;6181896;23;43337;-66
2022/08/04 04:17:40;;;;;;;2.10;2.00;;;23.70;66.60;;;;;;6182096;23;43521;-66
2022/08/04 04:20:38;;;;;;;2.35;1.90;;;23.70;66.60;;;;;;6180212;23;44938;-66
2022/08/04 04:23:28;;;;;;;2.85;2.10;;;23.70;66.60;;;;;;6181613;23;43432;-66
2022/08/04 04:26:42;;;;;;;1.90;1.80;;;23.60;66.60;;;;;;6181696;23;43337;-66
2022/08/04 04:29:39;;;;;;;2.85;1.80;;;23.60;66.60;;;;;;6060079;23;44053;-66
2022/08/04 04:32:34;;;;;;;2.20;2.00;;;23.60;66.50;;;;;;6059797;23;44035;-66
2022/08/04 04:35:26;;;;;;;3.13;1.90;;;23.60;66.50;;;;;;6140480;23;43437;-66
2022/08/04 04:38:15;;;;;;;2.40;2.13;;;23.60;66.60;;;;;;6182133;23;43349;-66
2022/08/04 04:41:21;;;;;;;2.33;2.13;;;23.60;66.60;;;;;;6180723;23;43459;-66
2022/08/04 04:44:18;;;;;;;2.33;2.13;;;23.60;66.70;;;;;;6155012;23;45063;-66
2022/08/04 04:47:10;;;;;;;2.20;2.00;;;23.60;66.60;;;;;;6175549;23;43691;-66
2022/08/04 04:49:56;;;;;;;2.72;2.05;;;23.60;66.60;;;;;;6122340;23;43425;-66
2022/08/04 04:52:43;;;;;;;2.25;2.05;;;23.60;66.60;;;;;;6182593;23;43938;-66
2022/08/04 04:55:39;;;;;;;3.15;2.30;;;23.60;66.60;;;;;;6181979;23;44954;-66
2022/08/04 04:58:17;;;;;;;2.70;2.00;;;23.60;66.60;;;;;;6182623;23;43337;-66
2022/08/04 05:01:06;;;;;;;;;;;23.60;66.60;;;;;;6182470;23;43452;-66
2022/08/04 05:03:52;;;;;;;2.50;2.10;;;23.60;66.60;;;;;;6182830;23;43522;-66
2022/08/04 05:06:53;;;;;;;2.00;1.90;;;23.60;66.60;;;;;;6182597;23;44645;-66
2022/08/04 05:09:48;;;;;;;2.38;2.17;;;23.60;66.70;;;;;;6181768;23;44283;-66
2022/08/04 05:12:53;;;;;;;2.20;2.10;;;23.60;66.60;;;;;;6182613;23;43378;-66
2022/08/04 05:15:45;;;;;;;2.38;1.92;;;23.60;66.60;;;;;;6182162;23;43388;-66
2022/08/04 05:18:20;;;;;;;2.00;1.80;;;23.60;66.70;;;;;;6182423;23;43753;-66
2022/08/04 05:21:36;;;;;;;2.20;2.00;;;23.60;66.80;;;;;;6182811;23;43445;-66
2022/08/04 05:24:08;;;;;;;2.75;2.03;;;23.60;66.60;;;;;;6146389;23;43423;-66
2022/08/04 05:26:42;;;;;;;2.10;1.90;;;23.60;66.60;;;;;;6182672;23;43428;-65
2022/08/04 05:29:21;;;;;;;2.13;1.90;;;23.60;66.60;;;;;;6181636;23;44618;-65
2022/08/04 05:32:00;;;;;;;1.90;1.70;;;23.60;66.60;;;;;;6182790;23;43423;-66
2022/08/04 05:34:32;;;;;;;;;;;23.60;66.60;;;;;;6156820;23;43380;-66
2022/08/04 05:37:06;;;;;;;2.60;2.00;;;23.60;66.60;;;;;;6182737;23;43349;-66
2022/08/04 05:39:58;;;;;;;2.83;1.85;;;23.60;66.70;;;;;;6182646;23;44004;-66
2022/08/04 05:42:26;;;;;;;;;;;23.60;66.70;;;;;;6183127;23;43417;-66
2022/08/04 05:44:54;;;;;;;2.08;1.90;;;23.60;66.80;;;;;;6182138;23;43393;-65
2022/08/04 05:47:24;;;;;;;1.92;1.80;;;23.60;66.70;;;;;;6182624;23;43567;-66
2022/08/04 05:49:53;;;;;;;2.20;2.00;;;23.60;66.70;;;;;;6181144;23;44062;-66
2022/08/04 05:52:29;;;;;;;2.10;1.90;;;23.60;66.80;;;;;;6155540;23;43394;-67
2022/08/04 05:54:59;;;;;;;3.58;2.03;;;23.60;66.80;;;;;;6182841;23;43365;-66
2022/08/04 05:57:28;;;;;;;2.20;1.88;;;23.60;66.80;;;;;;6181563;23;43474;-66
2022/08/04 05:59:59;;;;;;;2.38;1.85;;;23.60;66.80;;;;;;6181688;23;43853;-65
2022/08/04 06:02:28;;;;;;;2.22;2.03;;;23.60;66.90;;;;;;6182432;23;43931;-65
2022/08/04 06:04:58;;;;;;;2.13;1.92;;;23.60;66.90;;;;;;6182225;23;43412;-66
2022/08/04 06:07:26;;;;;;;3.03;1.90;;;23.60;66.90;;;;;;6182319;23;43624;-65
2022/08/04 06:09:56;;;;;;;2.30;1.90;;;23.60;66.90;;;;;;6182506;23;43762;-66
2022/08/04 06:12:36;;;;;;;2.47;2.28;;;23.60;66.90;;;;;;6181474;23;43975;-66
2022/08/04 06:15:07;;;;;;;2.85;2.25;;;23.60;67.50;;;;;;6182805;23;43340;-66
2022/08/04 06:17:41;;;;;;;2.35;2.15;;;23.60;66.90;;;;;;6182978;23;43416;-66
2022/08/04 06:20:32;;;;;;;2.28;2.08;;;23.60;66.80;;;;;;6181824;23;44877;-66
2022/08/04 06:23:05;;;;;;;2.40;2.20;;;23.60;66.80;;;;;;6182886;23;43333;-66
2022/08/04 06:25:37;;;;;;;1.90;1.80;;;23.60;66.80;;;;;;6182256;23;43377;-66
2022/08/04 06:28:08;;;;;;;1.83;1.73;;;23.60;66.80;;;;;;6182168;23;43473;-66
2022/08/04 06:30:38;;;;;;;2.65;1.77;;;23.60;66.80;;;;;;6182511;23;43794;-66
2022/08/04 06:33:23;;;;;;;2.17;1.90;;;23.60;66.80;;;;;;6181883;23;43441;-66
2022/08/04 06:35:54;;;;;;;3.72;1.85;;;23.60;66.80;;;;;;6155085;23;43484;-68
2022/08/04 06:38:24;;;;;;;2.20;2.00;;;23.60;67.10;;;;;;6182437;23;43579;-66
2022/08/04 06:40:54;;;;;;;2.13;1.92;;;23.60;67.00;;;;;;6181255;23;44764;-66
2022/08/04 06:43:22;;;;;;;2.33;1.83;;;23.60;67.00;;;;;;6182437;23;43944;-66
2022/08/04 06:45:53;;;;;;;;;;;23.60;67.00;;;;;;6183154;23;43368;-66
2022/08/04 06:48:23;;;;;;;2.28;1.98;;;23.60;67.00;;;;;;6181180;23;43417;-66
2022/08/04 06:51:01;;;;;;;2.72;1.80;;;23.50;67.00;;;;;;6182726;23;44673;-66
2022/08/04 06:53:49;;;;;;;2.47;2.10;;;23.50;67.00;;;;;;6181826;23;43371;-66
2022/08/04 06:56:18;;;;;;;3.25;2.10;;;23.50;67.00;;;;;;6181981;23;43389;-66
2022/08/04 06:58:46;;;;;;;2.55;2.20;;;23.60;66.90;;;;;;6182013;23;43449;-66
2022/08/04 07:01:17;;;;;;;2.17;1.98;;;23.50;66.90;;;;;;6180998;23;43764;-66
2022/08/04 07:03:44;;;;;;;3.13;2.30;;;23.60;67.00;;;;;;6182163;23;43415;-66
2022/08/04 07:06:17;;;;;;;2.70;2.17;;;23.50;66.90;;;;;;6182396;23;43424;-67
2022/08/04 07:08:45;;;;;;;2.10;1.90;;;23.60;67.60;;;;;;6181047;23;43535;-66
2022/08/04 07:11:13;;;;;;;2.50;2.17;;;23.50;67.00;;;;;;6181376;23;44035;-66
2022/08/04 07:13:42;;;;;;;3.28;2.10;;;23.50;66.90;;;;;;6182237;23;43332;-66
2022/08/04 07:16:16;;;;;;;3.95;1.92;;;23.60;67.00;;;;;;6181627;23;43379;-66
2022/08/04 07:18:44;;;;;;;3.30;2.40;;;23.50;66.90;;;;;;6182287;23;43507;-66
2022/08/04 07:21:19;;;;;;;2.65;1.90;;;23.60;66.90;;;;;;6180893;23;44114;-67
2022/08/04 07:23:48;;;;;;;2.25;1.92;;;23.60;67.00;;;;;;6182148;23;43437;-67
2022/08/04 07:26:17;;;;;;;3.33;2.08;;;23.60;66.90;;;;;;6182030;23;43425;-66
2022/08/04 07:28:45;;;;;;;2.22;2.08;;;23.60;66.90;;;;;;6181074;23;43468;-67
2022/08/04 07:31:17;;;;;;;2.08;1.90;;;23.60;66.90;;;;;;6181803;23;44956;-67
2022/08/04 07:34:02;;;;;;;2.92;2.08;;;23.60;66.90;;;;;;6182414;23;43402;-67
2022/08/04 07:36:53;;;;;;;2.17;1.95;;;23.60;66.90;;;;;;6181609;23;43366;-66
2022/08/04 07:39:28;;;;;;;1.90;1.80;;;23.60;67.00;;;;;;6181894;23;43524;-66
2022/08/04 07:42:00;;;;;;;1.85;1.75;;;23.60;67.00;;;;;;6182370;23;44883;-67
2022/08/04 07:44:33;;;;;;;2.10;1.95;;;23.60;66.90;;;;;;6181297;23;44132;-67
2022/08/04 07:47:02;;;;;;;2.85;2.00;;;23.60;66.90;;;;;;6181919;23;43416;-67
2022/08/04 07:49:30;;;;;;;2.72;2.20;;;23.60;66.90;;;;;;6180744;23;43428;-67
2022/08/04 07:52:17;;;;;;;2.25;2.05;;;23.60;67.00;;;;;;6181948;23;43972;-67
2022/08/04 07:54:46;;;;;;;2.33;2.05;;;23.60;67.10;;;;;;6181465;23;43741;-67
2022/08/04 07:57:15;;;;;;;2.20;2.00;;;23.60;67.00;;;;;;6181251;23;43424;-67
2022/08/04 08:00:04;;;;;;;3.00;1.98;;;23.60;67.10;;;;;;6182065;23;43380;-67
2022/08/04 08:02:38;;;;;;;2.35;2.08;;;23.70;67.10;;;;;;6178536;23;43765;-67
2022/08/04 08:05:08;;;;;;;2.22;2.03;;;23.70;67.00;;;;;;6180829;23;43391;-67
2022/08/04 08:07:36;;;;;;;2.13;1.85;;;23.70;67.00;;;;;;6181976;23;43354;-67
2022/08/04 08:10:17;;;;;;;2.55;2.35;;;23.70;67.00;;;;;;6180164;23;43499;-67
2022/08/04 08:12:45;;;;;;;2.30;2.03;;;23.70;67.00;;;;;;6180530;23;44916;-67
2022/08/04 08:15:18;;;;;;;2.72;2.08;;;23.70;66.90;;;;;;6182325;23;43917;-67
2022/08/04 08:17:46;;;;;;;2.17;1.98;;;23.70;66.90;;;;;;6181022;23;43918;-67
2022/08/04 08:20:45;;;;;;;2.40;2.03;;;23.70;66.90;;;;;;6181451;23;43396;-66
2022/08/04 08:23:13;;;;;;;2.10;1.90;;;23.70;66.90;;;;;;6180709;23;43714;-66
2022/08/04 08:25:41;;;;;;;2.78;2.00;;;23.70;67.00;;;;;;6180209;23;43912;-66
2022/08/04 08:28:09;;;;;;;2.28;2.08;;;23.70;66.90;;;;;;6181004;23;44019;-65
2022/08/04 08:30:36;;;;;;;2.50;2.10;;;23.70;66.90;;;;;;6181476;23;43545;-66
2022/08/04 08:33:13;;;;;;;2.17;2.00;;;23.70;67.00;;;;;;6180793;23;44242;-65
2022/08/04 08:35:47;;;;;;;2.83;1.92;;;23.70;66.90;;;;;;6181603;23;44250;-65
2022/08/04 08:38:46;;;;;;;1.83;1.73;;;23.70;66.90;;;;;;6181678;23;43401;-65
2022/08/04 08:41:42;;;;;;;2.03;1.83;;;23.80;67.00;;;;;;6180961;23;43439;-65
2022/08/04 08:44:39;;;;;;;2.33;2.13;;;23.80;67.20;;;;;;6154343;23;47125;-65
2022/08/04 08:47:13;;;;;;;2.35;2.15;;;23.80;67.20;;;;;;6130732;23;43941;-65
2022/08/04 08:50:16;;;;;;;1.73;1.60;;;23.80;67.20;;;;;;6181138;23;43384;-65
2022/08/04 08:53:43;;;;;;;1.95;1.75;;;23.80;67.10;;;;;;6180680;23;43528;-65
2022/08/04 08:56:25;;;;;;;2.15;2.00;;;23.80;67.00;;;;;;6167773;23;43778;-64
2022/08/04 08:59:31;;;;;;;3.92;1.90;;;23.80;66.90;;;;;;6182102;23;43420;-65
2022/08/04 09:02:21;;;;;;;2.03;1.92;;;23.80;67.10;;;;;;6180981;23;43424;-65
2022/08/04 09:05:19;;;;;;;2.30;2.10;;;23.80;67.20;;;;;;6181705;23;43415;-65
2022/08/04 09:08:07;;;;;;;2.20;2.00;;;23.80;67.20;;;;;;6180696;23;44001;-65
2022/08/04 09:10:52;;;;;;;2.22;2.03;;;23.80;67.30;;;;;;6180878;23;43966;-65
2022/08/04 09:13:26;;;;;;;3.28;2.15;;;23.90;67.40;;;;;;6181488;23;43483;-65
2022/08/04 09:16:01;;;;;;;2.22;2.03;;;23.90;67.40;;;;;;6181119;23;43463;-65
2022/08/04 09:18:54;;;;;;;2.30;2.20;;;23.90;67.40;;;;;;6181196;23;44941;-65
2022/08/04 09:21:39;;;;;;;2.72;1.90;;;23.90;67.40;;;;;;6180618;23;43477;-65
2022/08/04 09:24:15;;;;;;;2.30;2.10;;;23.90;67.30;;;;;;6181435;23;43401;-65
2022/08/04 09:27:29;;;;;;;2.00;1.80;;;23.90;67.30;;;;;;6181285;23;43580;-64
2022/08/04 09:30:06;;;;;;;2.55;2.00;;;23.90;67.20;;;;;;6179131;23;44356;-66
2022/08/04 09:32:37;;;;;;;2.33;2.03;;;23.90;67.30;;;;;;6177391;23;43549;-64
2022/08/04 09:35:04;;;;;;;2.65;2.00;;;23.90;67.50;;;;;;6180796;23;43396;-60
2022/08/04 09:37:53;;;;;;;2.80;2.10;;;24.00;67.50;;;;;;6182105;23;43337;-64
2022/08/04 09:40:28;;;;;;;4.65;1.92;;;24.00;67.60;;;;;;6181502;23;44924;-63
2022/08/04 09:43:45;;;;;;;2.60;2.05;;;24.10;67.50;;;;;;6180670;23;43457;-63
2022/08/04 09:46:39;;;;;;;2.28;1.75;;;24.10;67.40;;;;;;6182101;23;43454;-64
2022/08/04 09:49:18;;;;;;;2.10;1.80;;;24.20;67.50;;;;;;5110490;22;10000492;-63
2022/08/04 09:51:55;;;;;;;2.20;2.00;;;24.20;67.30;;;;;;6208167;22;43380;-59
2022/08/04 09:54:42;;;;;;;2.10;1.80;;;24.20;67.30;;;;;;6209139;22;45795;-64
2022/08/04 09:57:26;;;;;;;2.03;1.83;;;24.20;67.60;;;;;;6197516;22;55122;-64
2022/08/04 10:00:08;;;;;;;2.20;2.00;;;24.30;67.20;;;;;;6212273;22;43617;-63
2022/08/04 10:02:51;;;;;;;1.85;1.65;;;24.30;67.20;;;;;;6212429;22;43623;-64
2022/08/04 10:05:25;;;;;;;2.07;1.90;;;24.30;67.10;;;;;;6211652;22;43390;-63
2022/08/04 10:08:12;;;;;;;1.92;1.83;;;24.30;67.10;;;;;;6212583;22;44959;-63
2022/08/04 10:11:07;;;;;;;3.03;1.83;;;24.30;67.00;;;;;;6211035;22;43271;-63
2022/08/04 10:14:07;;;;;;;2.88;1.95;;;24.40;67.00;;;;;;6185341;22;43275;-63
2022/08/04 10:17:12;;;;;;;2.40;1.92;;;24.40;66.90;;;;;;6155837;22;43372;-62
2022/08/04 10:19:41;;;;;;;2.10;1.90;;;24.40;66.80;;;;;;6212017;22;45124;-63
2022/08/04 10:22:17;;;;;;;2.20;2.00;;;24.40;66.90;;;;;;6211670;22;43683;-63
2022/08/04 10:25:16;;;;;;;2.10;1.60;;;24.40;66.80;;;;;;6212281;22;43285;-62
2022/08/04 10:28:12;;;;;;;2.05;1.63;;;24.50;66.90;;;;;;6211899;22;43368;-63
2022/08/04 10:30:50;;;;;;;1.98;1.80;;;24.50;66.90;;;;;;6211933;22;43953;-62
2022/08/04 10:33:22;;;;;;;2.35;1.80;;;24.50;66.80;;;;;;6211069;22;43600;-63
2022/08/04 10:36:00;;;;;;;1.83;1.73;;;24.50;66.70;;;;;;6212330;22;43296;-62
2022/08/04 10:38:41;;;;;;;1.65;1.55;;;24.50;66.80;;;;;;6211799;22;43340;-62
2022/08/04 10:41:17;;;;;;;2.80;1.77;;;24.60;66.80;;;;;;6211041;22;43836;-62
2022/08/04 10:44:11;;;;;;;2.60;1.70;;;24.50;66.70;;;;;;6212094;22;43677;-62
2022/08/04 10:46:46;;;;;;;2.03;1.83;;;24.60;66.60;;;;;;6211279;22;43514;-64
2022/08/04 10:49:28;;;;;;;1.88;1.73;;;24.60;66.60;;;;;;6212004;22;43368;-63
2022/08/04 10:52:21;;;;;;;1.80;1.70;;;24.60;66.50;;;;;;6212107;22;44940;-63
2022/08/04 10:55:06;;;;;;;1.70;1.60;;;24.60;66.50;;;;;;6212463;22;43272;-63
2022/08/04 10:57:40;;;;;;;2.58;1.60;;;24.60;66.50;;;;;;6212670;22;43248;-62
2022/08/04 11:00:18;;;;;;;2.67;1.60;;;24.60;66.50;;;;;;6211776;22;43262;-62
2022/08/04 11:02:50;;;;;;;1.77;1.60;;;24.70;66.50;;;;;;6212603;22;44044;-64
2022/08/04 11:05:51;;;;;;;1.60;1.50;;;24.70;66.50;;;;;;6213550;22;43313;-63
2022/08/04 11:08:37;;;;;;;1.63;1.52;;;24.70;66.50;;;;;;6211978;22;43225;-63
2022/08/04 11:11:32;;;;;;;1.48;1.38;;;24.70;66.50;;;;;;6212601;22;43372;-62
2022/08/04 11:14:33;;;;;;;1.60;1.50;;;24.70;66.40;;;;;;6211628;22;43762;-63
2022/08/04 11:17:10;;;;;;;1.80;1.70;;;24.70;66.60;;;;;;6213493;22;43259;-63
2022/08/04 11:19:45;;;;;;;2.38;1.65;;;24.70;66.40;;;;;;6212719;22;43209;-62
2022/08/04 11:22:19;;;;;;;1.55;1.45;;;24.70;66.50;;;;;;6211875;22;43268;-63
2022/08/04 11:25:04;;;;;;;1.60;1.50;;;24.70;66.50;;;;;;6212408;22;44997;-62
2022/08/04 11:28:08;;;;;;;1.85;1.75;;;24.70;66.40;;;;;;6211827;22;43909;-62
2022/08/04 11:30:40;;;;;;;2.05;1.50;;;24.80;66.60;;;;;;6212637;22;43266;-63
2022/08/04 11:33:27;;;;;;;1.48;1.38;;;24.70;66.50;;;;;;6213106;22;43344;-64
2022/08/04 11:36:05;;;;;;;1.70;1.58;;;24.80;66.50;;;;;;6137018;22;44024;-62
2022/08/04 11:38:57;;;;;;;2.03;1.70;;;24.80;66.50;;;;;;6212672;22;43886;-63
2022/08/04 11:42:05;;;;;;;1.83;1.50;;;24.80;66.30;;;;;;6212131;22;43276;-63
2022/08/04 11:44:59;;;;;;;1.95;1.48;;;24.80;66.50;;;;;;6212888;22;43275;-63
2022/08/04 11:47:29;;;;;;;1.77;1.38;;;24.80;66.70;;;;;;6180382;22;43744;-63
2022/08/04 11:50:32;;;;;;;3.80;1.40;;;24.80;66.70;;;;;;6211788;22;43309;-63
2022/08/04 11:53:01;;;;;;;1.83;1.50;;;24.80;66.70;;;;;;6206804;22;43406;-63
2022/08/04 11:55:30;;;;;;;1.50;1.40;;;24.80;66.60;;;;;;6212593;22;43336;-63
2022/08/04 11:58:19;;;;;;;1.58;1.48;;;24.80;66.90;;;;;;6211945;22;44072;-63
2022/08/04 12:01:08;;;;;;;1.25;1.25;;;24.90;66.70;;;;;;6207298;22;43924;-63
2022/08/04 12:04:06;;;;;;;1.90;1.40;;;24.90;66.60;;;;;;6212214;22;43249;-63
2022/08/04 12:06:54;;;;;;;1.40;1.30;;;24.90;66.60;;;;;;6170789;22;43464;-63
2022/08/04 12:10:00;;;;;;;1.38;1.27;;;24.90;66.40;;;;;;6211302;22;44612;-64
2022/08/04 12:12:51;;;;;;;1.33;1.23;;;24.90;66.50;;;;;;6212336;22;43218;-63
2022/08/04 12:15:21;;;;;;;1.60;1.42;;;24.90;66.70;;;;;;6187583;22;43952;-63
2022/08/04 12:17:57;;;;;;;1.65;1.15;;;24.90;66.70;;;;;;6211992;22;43252;-63
2022/08/04 12:20:28;;;;;;;1.73;1.38;;;24.90;66.70;;;;;;6211775;22;43740;-63
2022/08/04 12:23:15;;;;;;;1.63;1.52;;;24.90;66.70;;;;;;6212495;22;43915;-63
2022/08/04 12:25:47;;;;;;;1.30;1.30;;;24.90;66.70;;;;;;6212159;22;43244;-64
2022/08/04 12:28:23;;;;;;;1.65;1.55;;;24.90;66.70;;;;;;6212212;22;43428;-63
2022/08/04 12:30:58;;;;;;;2.08;1.40;;;24.90;66.70;;;;;;6211378;22;43739;-63
2022/08/04 12:33:39;;;;;;;1.27;1.27;;;24.90;66.60;;;;;;6212669;22;43245;-63
2022/08/04 12:36:34;;;;;;;1.75;1.40;;;24.90;66.50;;;;;;6212556;22;43209;-63
2022/08/04 12:39:19;;;;;;;1.20;1.20;;;24.90;66.60;;;;;;6212249;22;43312;-62
2022/08/04 12:42:07;;;;;;;1.50;1.40;;;24.90;66.60;;;;;;6211888;22;45093;-63
2022/08/04 12:44:37;;;;;;;1.55;1.45;;;24.90;66.70;;;;;;6212213;22;43881;-63
2022/08/04 12:47:09;;;;;;;1.83;1.40;;;24.90;66.70;;;;;;6211712;22;43281;-63
2022/08/04 12:50:02;;;;;;;1.67;1.58;;;24.90;66.70;;;;;;6212535;22;43316;-62
2022/08/04 12:52:46;;;;;;;1.20;1.20;;;25.00;66.80;;;;;;6210213;22;44203;-63
2022/08/04 12:55:34;;;;;;;1.98;1.40;;;25.00;66.70;;;;;;6212206;22;43911;-63
2022/08/04 12:58:10;;;;;;;1.30;1.20;;;25.00;67.40;;;;;;6212551;22;43245;-63
2022/08/04 13:00:38;;;;;;;2.25;1.20;;;25.00;66.60;;;;;;6211065;22;43249;-62
2022/08/04 13:03:14;;;;;;;1.30;1.20;;;25.00;66.70;;;;;;6212088;22;44667;-64
2022/08/04 13:05:44;;;;;;;1.77;1.45;;;25.00;66.80;;;;;;6212020;22;43252;-63
2022/08/04 13:08:12;;;;;;;2.42;1.10;;;25.10;67.10;;;;;;6211380;22;43260;-63
2022/08/04 13:10:44;;;;;;;1.20;1.10;;;25.10;66.90;;;;;;6213100;22;43289;-63
2022/08/04 13:13:24;;;;;;;1.50;1.40;;;25.10;67.40;;;;;;6212102;22;44094;-64
2022/08/04 13:16:00;;;;;;;1.42;1.33;;;25.10;66.90;;;;;;6213405;22;43960;-64
2022/08/04 13:18:57;;;;;;;1.40;1.30;;;25.20;66.90;;;;;;6213597;22;43260;-63
2022/08/04 13:21:33;;;;;;;1.48;1.38;;;25.20;66.70;;;;;;6212650;22;43267;-64
2022/08/04 13:24:22;;;;;;;1.73;1.48;;;25.20;66.90;;;;;;6213011;22;45048;-64
2022/08/04 13:27:07;;;;;;;1.85;1.30;;;25.30;67.10;;;;;;6212785;22;43885;-63
2022/08/04 13:29:44;;;;;;;1.67;1.40;;;25.30;67.00;;;;;;6213566;22;43332;-64
2022/08/04 13:32:32;;;;;;;1.38;1.27;;;25.30;66.90;;;;;;6213382;22;43230;-64
2022/08/04 13:35:02;;;;;;;2.30;1.40;;;25.30;66.60;;;;;;6212822;22;44919;-64
2022/08/04 13:37:37;;;;;;;1.40;1.30;;;25.30;66.70;;;;;;6213475;22;43258;-64
2022/08/04 13:40:09;;;;;;;2.70;1.40;;;25.30;66.50;;;;;;6213207;22;43326;-64
2022/08/04 13:42:38;;;;;;;2.10;1.20;;;25.30;66.80;;;;;;6212473;22;43313;-62
2022/08/04 13:45:08;;;;;;;1.42;1.33;;;25.30;67.80;;;;;;6212608;22;44925;-64
2022/08/04 13:47:39;;;;;;;1.85;1.20;;;25.30;67.00;;;;;;6212647;22;43335;-65
2022/08/04 13:50:16;;;;;;;1.88;1.35;;;25.40;67.00;;;;;;6212074;22;43288;-65
2022/08/04 13:52:44;;;;;;;1.40;1.30;;;25.30;66.90;;;;;;6209875;22;43363;-64
2022/08/04 13:55:27;;;;;;;2.47;1.50;;;25.30;67.00;;;;;;5117987;22;10001000;-64
2022/08/04 13:58:09;;;;;;;1.92;1.38;;;25.40;67.00;;;;;;6212919;22;43332;-64
2022/08/04 14:00:44;;;;;;;1.75;1.38;;;25.40;67.20;;;;;;6212161;22;44331;-64
2022/08/04 14:03:20;;;;;;;1.83;1.55;;;25.40;67.30;;;;;;6211498;22;43686;-64
2022/08/04 14:06:16;;;;;;;1.95;1.60;;;25.50;67.30;;;;;;6212470;22;43340;-64
2022/08/04 14:08:51;;;;;;;2.33;1.50;;;25.50;67.00;;;;;;6212808;22;43328;-64